Time;durP1;ratioP1;P1;durP2;ratioP2;P2;SDS_P1;SDS_P2;PMS_P1;PMS_P2;Temp;Humidity;BMP_temperature;BMP_pressure;BME280_temperature;BME280_humidity;BME280_pressure;Samples;Min_cycle;Max_cycle;Signal;HPM_P1;HPM_P2
2022/06/03 00:01:34;;;;;;;1.65;1.55;;;17.50;46.00;;;;;;4971602;28;20051;-52
2022/06/03 00:04:10;;;;;;;1.60;1.50;;;17.40;46.30;;;;;;4962164;28;20582;-49
2022/06/03 00:07:05;;;;;;;1.33;1.23;;;17.30;46.30;;;;;;4953015;28;20085;-51
2022/06/03 00:10:10;;;;;;;1.83;1.40;;;17.20;46.60;;;;;;4951875;28;20050;-52
2022/06/03 00:13:11;;;;;;;1.45;1.35;;;17.10;46.70;;;;;;4969905;28;20043;-51
2022/06/03 00:15:40;;;;;;;1.88;1.75;;;17.00;46.60;;;;;;4959618;28;20102;-52
2022/06/03 00:18:12;;;;;;;1.92;1.80;;;17.00;46.40;;;;;;4965138;28;20046;-52
2022/06/03 00:20:46;;;;;;;2.00;1.75;;;16.90;46.70;;;;;;4973567;28;20051;-50
2022/06/03 00:23:45;;;;;;;1.98;1.65;;;16.80;46.90;;;;;;4956524;28;20134;-49
2022/06/03 00:26:29;;;;;;;2.50;1.52;;;16.80;47.50;;;;;;4959044;28;20451;-53
2022/06/03 00:29:30;;;;;;;1.90;1.80;;;16.70;47.70;;;;;;4962847;28;20414;-50
2022/06/03 00:32:44;;;;;;;2.60;1.70;;;16.70;47.80;;;;;;4946874;29;20035;-49
2022/06/03 00:35:26;;;;;;;2.13;1.92;;;16.60;47.80;;;;;;4946223;28;20428;-50
2022/06/03 00:38:12;;;;;;;1.50;1.40;;;16.50;47.60;;;;;;4960045;28;20455;-51
2022/06/03 00:41:03;;;;;;;1.27;1.23;;;16.50;47.70;;;;;;4938392;29;20071;-51
2022/06/03 00:44:04;;;;;;;1.30;1.30;;;16.40;48.60;;;;;;4947000;28;20055;-52
2022/06/03 00:47:09;;;;;;;1.65;1.55;;;16.40;48.70;;;;;;4961786;28;20039;-52
2022/06/03 00:49:41;;;;;;;1.58;1.48;;;16.40;49.00;;;;;;4934761;29;20604;-52
2022/06/03 00:52:39;;;;;;;1.75;1.65;;;16.30;48.80;;;;;;4935773;29;20047;-53
2022/06/03 00:55:33;;;;;;;2.03;1.48;;;16.30;49.30;;;;;;4959893;28;20034;-51
2022/06/03 00:58:18;;;;;;;1.70;1.60;;;16.30;49.50;;;;;;4963719;28;20869;-52
2022/06/03 01:01:10;;;;;;;1.67;1.58;;;16.30;49.30;;;;;;4972611;28;20509;-51
2022/06/03 01:03:48;;;;;;;1.60;1.50;;;16.30;49.70;;;;;;4960428;28;20043;-51
2022/06/03 01:06:49;;;;;;;1.85;1.60;;;16.30;49.80;;;;;;4963250;28;20043;-48
2022/06/03 01:09:33;;;;;;;4.20;1.98;;;16.20;49.80;;;;;;4961508;28;20043;-50
2022/06/03 01:12:20;;;;;;;1.60;1.50;;;16.20;49.40;;;;;;4960437;28;20047;-50
2022/06/03 01:15:05;;;;;;;1.88;1.58;;;16.20;49.90;;;;;;4953620;28;20039;-49
2022/06/03 01:18:13;;;;;;;1.75;1.65;;;16.20;49.40;;;;;;4951316;29;20043;-50
2022/06/03 01:20:48;;;;;;;1.70;1.60;;;16.10;49.60;;;;;;4895980;29;20045;-49
2022/06/03 01:23:54;;;;;;;1.70;1.60;;;16.10;49.50;;;;;;4901928;29;20476;-48
2022/06/03 01:26:49;;;;;;;1.40;1.30;;;16.10;50.10;;;;;;4958178;28;20137;-51
2022/06/03 01:29:39;;;;;;;1.70;1.60;;;16.00;49.70;;;;;;4964301;28;20043;-49
2022/06/03 01:32:27;;;;;;;1.50;1.40;;;16.00;49.80;;;;;;4960388;28;20118;-51
2022/06/03 01:34:59;;;;;;;2.05;1.60;;;15.90;49.60;;;;;;4960248;28;20043;-49
2022/06/03 01:37:47;;;;;;;1.50;1.40;;;15.80;49.30;;;;;;4953439;28;20083;-51
2022/06/03 01:41:00;;;;;;;1.50;1.40;;;15.80;49.90;;;;;;4951423;28;20074;-53
2022/06/03 01:43:34;;;;;;;1.58;1.48;;;15.70;49.80;;;;;;4935419;28;20074;-52
2022/06/03 01:46:18;;;;;;;1.67;1.58;;;15.60;49.00;;;;;;4950976;29;20039;-50
2022/06/03 01:48:57;;;;;;;1.67;1.55;;;15.50;49.70;;;;;;4950343;29;20031;-49
2022/06/03 01:51:41;;;;;;;2.15;1.73;;;15.40;49.00;;;;;;4957139;28;20627;-52
2022/06/03 01:54:45;;;;;;;1.83;1.30;;;15.40;49.80;;;;;;4962917;28;20046;-50
2022/06/03 01:57:40;;;;;;;1.65;1.55;;;15.30;50.10;;;;;;4970726;28;20043;-52
2022/06/03 02:00:25;;;;;;;1.60;1.50;;;15.20;50.00;;;;;;4954475;28;20078;-52
2022/06/03 02:03:17;;;;;;;1.60;1.50;;;15.10;50.30;;;;;;4954470;28;20743;-52
2022/06/03 02:06:38;;;;;;;1.48;1.38;;;15.00;50.30;;;;;;4951313;29;20113;-49
2022/06/03 02:09:32;;;;;;;1.67;1.58;;;15.00;50.40;;;;;;4917678;29;20048;-50
2022/06/03 02:12:08;;;;;;;1.58;1.40;;;14.90;50.30;;;;;;4955534;28;20047;-49
2022/06/03 02:15:10;;;;;;;1.83;1.73;;;14.80;49.80;;;;;;4950300;28;20102;-52
2022/06/03 02:18:08;;;;;;;1.60;1.50;;;14.70;50.60;;;;;;4955186;28;20046;-49
2022/06/03 02:21:12;;;;;;;1.70;1.60;;;14.70;50.40;;;;;;4969831;28;20043;-48
2022/06/03 02:23:57;;;;;;;2.00;1.80;;;14.60;50.50;;;;;;4975632;28;20089;-50
2022/06/03 02:26:27;;;;;;;1.63;1.52;;;14.50;49.60;;;;;;4960493;28;20384;-50
2022/06/03 02:32:16;;;;;;;1.77;1.67;;;14.40;51.00;;;;;;4958432;29;20043;-49
2022/06/03 02:34:58;;;;;;;2.13;1.55;;;14.40;50.50;;;;;;4956074;28;20055;-50
2022/06/03 02:37:52;;;;;;;1.67;1.58;;;14.30;50.60;;;;;;4961678;28;20051;-49
2022/06/03 02:40:30;;;;;;;1.92;1.73;;;14.30;51.10;;;;;;4969780;28;20074;-49
2022/06/03 02:43:41;;;;;;;2.83;1.52;;;14.20;50.10;;;;;;4977653;28;20046;-49
2022/06/03 02:46:37;;;;;;;1.65;1.48;;;14.10;51.10;;;;;;4979751;23;20055;-47
2022/06/03 02:49:47;;;;;;;1.77;1.45;;;14.10;51.20;;;;;;4958354;28;20439;-50
2022/06/03 02:52:38;;;;;;;1.45;1.38;;;14.00;51.10;;;;;;4939235;28;20054;-47
2022/06/03 02:55:24;;;;;;;1.70;1.60;;;14.00;50.60;;;;;;4960630;28;20541;-46
2022/06/03 02:58:09;;;;;;;2.65;1.92;;;14.00;51.30;;;;;;4964493;28;20043;-48
2022/06/03 03:01:14;;;;;;;1.60;1.50;;;13.90;50.50;;;;;;4977984;28;20502;-47
2022/06/03 03:04:04;;;;;;;1.90;1.63;;;13.80;52.10;;;;;;4966272;28;20050;-48
2022/06/03 03:06:42;;;;;;;2.28;1.77;;;13.80;50.50;;;;;;4968818;28;20047;-46
2022/06/03 03:09:38;;;;;;;3.45;1.77;;;13.70;50.60;;;;;;4968843;28;20039;-48
2022/06/03 03:12:36;;;;;;;2.78;1.70;;;13.70;51.60;;;;;;4957839;28;20058;-50
2022/06/03 03:15:21;;;;;;;2.10;1.70;;;13.70;51.60;;;;;;4959448;28;20039;-49
2022/06/03 03:18:18;;;;;;;1.90;1.80;;;13.60;50.60;;;;;;4960020;28;20102;-47
2022/06/03 03:21:13;;;;;;;1.90;1.77;;;13.60;51.10;;;;;;4959105;29;20051;-46
2022/06/03 03:23:47;;;;;;;2.40;1.70;;;13.60;51.80;;;;;;4952153;28;20043;-50
2022/06/03 03:26:46;;;;;;;2.83;2.45;;;13.50;51.40;;;;;;4966739;28;20498;-48
2022/06/03 03:29:31;;;;;;;2.00;1.90;;;13.50;52.10;;;;;;4967876;28;20047;-48
2022/06/03 03:32:28;;;;;;;1.55;1.45;;;13.40;51.00;;;;;;4952093;28;20095;-51
2022/06/03 03:35:27;;;;;;;2.28;2.00;;;13.40;52.30;;;;;;4955731;28;20527;-51
2022/06/03 03:38:02;;;;;;;1.95;1.85;;;13.40;52.50;;;;;;4936228;29;20047;-50
2022/06/03 03:40:52;;;;;;;1.85;1.75;;;13.40;51.80;;;;;;4936460;29;20058;-51
2022/06/03 03:43:42;;;;;;;1.88;1.77;;;13.30;52.60;;;;;;4957234;28;20129;-50
2022/06/03 03:46:15;;;;;;;4.00;2.10;;;13.30;52.60;;;;;;4957177;28;20039;-51
2022/06/03 03:49:19;;;;;;;2.10;2.00;;;13.30;51.90;;;;;;4953369;28;20380;-49
2022/06/03 03:52:15;;;;;;;1.90;1.80;;;13.30;53.40;;;;;;4947906;29;20110;-51
2022/06/03 03:55:03;;;;;;;3.05;2.00;;;13.30;53.20;;;;;;4952400;28;20055;-50
2022/06/03 03:58:07;;;;;;;2.72;1.90;;;13.20;53.30;;;;;;4954731;28;20051;-50
2022/06/03 04:01:01;;;;;;;1.98;1.88;;;13.20;53.50;;;;;;4956023;28;20121;-51
2022/06/03 04:04:21;;;;;;;2.03;1.80;;;13.30;53.40;;;;;;4966150;28;20043;-49
2022/06/03 04:07:18;;;;;;;2.20;2.10;;;13.30;53.70;;;;;;4913642;29;20044;-47
2022/06/03 04:10:10;;;;;;;2.90;2.03;;;13.20;53.40;;;;;;4967560;28;20047;-50
2022/06/03 04:13:19;;;;;;;2.08;1.90;;;13.30;54.00;;;;;;4952607;28;20043;-50
2022/06/03 04:15:56;;;;;;;2.55;2.10;;;13.30;54.20;;;;;;4961363;28;20039;-47
2022/06/03 04:19:01;;;;;;;2.33;2.13;;;13.30;53.90;;;;;;4955026;28;20051;-47
2022/06/03 04:21:46;;;;;;;2.47;2.13;;;13.30;54.50;;;;;;4964391;28;20043;-46
2022/06/03 04:24:47;;;;;;;2.20;2.00;;;13.30;54.60;;;;;;4963821;28;20526;-51
2022/06/03 04:27:30;;;;;;;2.55;2.35;;;13.40;54.80;;;;;;4968855;28;20468;-49
2022/06/03 04:30:30;;;;;;;2.55;2.25;;;13.40;54.90;;;;;;4954705;28;20090;-50
2022/06/03 04:33:09;;;;;;;2.60;2.40;;;13.40;55.20;;;;;;4962287;28;20035;-52
2022/06/03 04:36:15;;;;;;;2.80;2.60;;;13.50;55.00;;;;;;4952063;28;20138;-48
2022/06/03 04:39:12;;;;;;;2.97;2.25;;;13.50;55.60;;;;;;4944306;28;20050;-51
2022/06/03 04:42:11;;;;;;;2.28;2.10;;;13.50;54.70;;;;;;4955425;28;20047;-46
2022/06/03 04:44:54;;;;;;;3.08;2.53;;;13.60;55.80;;;;;;4933578;29;20078;-49
2022/06/03 04:47:58;;;;;;;2.47;2.28;;;13.60;56.00;;;;;;4961760;28;20047;-49
2022/06/03 04:50:36;;;;;;;2.45;2.20;;;13.70;56.30;;;;;;4965351;28;20429;-51
2022/06/03 04:53:03;;;;;;;3.13;2.83;;;13.70;55.60;;;;;;4973743;28;20051;-47
2022/06/03 04:55:51;;;;;;;3.08;2.75;;;13.70;55.30;;;;;;4965124;28;20109;-51
2022/06/03 04:58:45;;;;;;;3.03;2.50;;;13.80;55.60;;;;;;4956048;28;20495;-48
2022/06/03 05:01:43;;;;;;;2.92;2.45;;;13.80;57.30;;;;;;4954016;29;20047;-48
2022/06/03 05:04:36;;;;;;;4.50;3.08;;;13.90;56.90;;;;;;4953277;28;20039;-48
2022/06/03 05:07:14;;;;;;;;;;;14.00;56.10;;;;;;4956281;28;20487;-50
2022/06/03 05:09:50;;;;;;;4.30;2.75;;;14.10;55.90;;;;;;4953310;28;20021;-51
2022/06/03 05:12:29;;;;;;;4.38;2.80;;;14.20;55.60;;;;;;4973143;28;20513;-50
2022/06/03 05:15:34;;;;;;;4.45;3.22;;;14.30;57.60;;;;;;4957256;28;20122;-52
2022/06/03 05:18:19;;;;;;;4.22;3.25;;;14.30;58.10;;;;;;4960277;28;20094;-47
2022/06/03 05:21:22;;;;;;;4.50;3.35;;;14.40;57.60;;;;;;4934593;29;20047;-52
2022/06/03 05:24:00;;;;;;;4.53;3.63;;;14.50;58.70;;;;;;4919982;29;20072;-52
2022/06/03 05:27:01;;;;;;;3.72;3.42;;;14.60;58.90;;;;;;4954083;28;20043;-52
2022/06/03 05:29:56;;;;;;;4.45;3.30;;;14.70;58.70;;;;;;4955971;28;20047;-52
2022/06/03 05:32:31;;;;;;;3.88;3.35;;;14.80;58.90;;;;;;4950937;28;20047;-52
2022/06/03 05:35:29;;;;;;;3.03;2.83;;;14.90;57.70;;;;;;4951922;28;20042;-51
2022/06/03 05:38:31;;;;;;;4.47;3.08;;;15.00;58.60;;;;;;4958306;28;20094;-50
2022/06/03 05:45:16;;;;;;;3.30;3.05;;;15.30;58.40;;;;;;4887391;28;20112;-53
2022/06/03 05:48:06;;;;;;;3.28;2.97;;;15.50;57.30;;;;;;4948593;28;20046;-53
2022/06/03 05:50:41;;;;;;;3.33;3.03;;;15.60;57.20;;;;;;4947850;28;20051;-53
2022/06/03 05:53:38;;;;;;;3.85;3.28;;;15.70;56.30;;;;;;4954320;28;20035;-49
2022/06/03 05:56:40;;;;;;;3.47;2.95;;;15.80;57.90;;;;;;4961123;28;20540;-51
2022/06/03 05:59:36;;;;;;;3.67;2.63;;;15.90;57.20;;;;;;4955487;28;20420;-51
2022/06/03 06:02:39;;;;;;;4.22;2.78;;;16.10;57.50;;;;;;4947910;28;20448;-54
2022/06/03 06:05:32;;;;;;;5.18;2.33;;;16.20;57.20;;;;;;4945847;28;20047;-52
2022/06/03 06:08:36;;;;;;;3.35;2.53;;;16.30;56.80;;;;;;4950389;29;20035;-54
2022/06/03 06:11:15;;;;;;;2.47;2.28;;;16.40;56.00;;;;;;4903055;28;20055;-54
2022/06/03 06:13:50;;;;;;;3.63;2.38;;;16.50;55.70;;;;;;4936871;28;20086;-51
2022/06/03 06:16:37;;;;;;;2.97;2.65;;;16.60;55.60;;;;;;4930637;28;20031;-50
2022/06/03 06:19:28;;;;;;;3.17;2.10;;;16.70;55.80;;;;;;4931995;28;20047;-54
2022/06/03 06:22:19;;;;;;;1.60;1.50;;;16.80;55.40;;;;;;4934868;28;20051;-51
2022/06/03 06:24:56;;;;;;;2.08;1.90;;;16.90;55.10;;;;;;4953773;28;20063;-49
2022/06/03 06:27:28;;;;;;;2.08;1.65;;;17.00;54.40;;;;;;4945319;29;20534;-50
2022/06/03 06:30:14;;;;;;;2.45;1.90;;;17.10;54.00;;;;;;4897213;28;20564;-54
2022/06/03 06:32:44;;;;;;;2.55;1.80;;;17.10;53.70;;;;;;4940136;28;20051;-52
2022/06/03 06:35:35;;;;;;;1.77;1.67;;;17.20;53.60;;;;;;4932422;28;20043;-55
2022/06/03 06:38:20;;;;;;;1.88;1.75;;;17.40;53.60;;;;;;4943138;28;20102;-51
2022/06/03 06:40:56;;;;;;;1.70;1.60;;;17.50;53.00;;;;;;4939444;28;20113;-50
2022/06/03 06:43:50;;;;;;;1.85;1.73;;;17.60;53.00;;;;;;4952713;28;20145;-56
2022/06/03 06:46:47;;;;;;;2.38;1.33;;;17.70;53.20;;;;;;4940310;28;20043;-53
2022/06/03 06:49:38;;;;;;;1.95;1.50;;;17.70;52.90;;;;;;4940121;28;20047;-53
2022/06/03 06:52:41;;;;;;;1.98;1.45;;;17.80;52.50;;;;;;4949222;28;20054;-53
2022/06/03 06:55:37;;;;;;;2.50;1.52;;;18.00;52.30;;;;;;4911363;28;20055;-55
2022/06/03 06:58:08;;;;;;;1.52;1.30;;;18.00;51.80;;;;;;4943603;28;20455;-52
2022/06/03 07:00:42;;;;;;;4.38;1.63;;;18.10;51.60;;;;;;4935725;28;20046;-55
2022/06/03 07:03:17;;;;;;;1.38;1.27;;;18.20;51.90;;;;;;4956317;28;20047;-50
2022/06/03 07:05:59;;;;;;;1.27;1.20;;;18.30;51.70;;;;;;4931795;28;20122;-51
2022/06/03 07:08:28;;;;;;;2.28;1.35;;;18.40;51.30;;;;;;4954236;28;20043;-54
2022/06/03 07:11:14;;;;;;;1.30;1.20;;;18.50;51.00;;;;;;4966134;28;20097;-50
2022/06/03 07:13:50;;;;;;;2.63;1.52;;;18.60;51.10;;;;;;4956339;28;20035;-54
2022/06/03 07:22:31;;;;;;;1.85;1.30;;;18.80;50.10;;;;;;4972335;28;20063;-53
2022/06/03 07:25:06;;;;;;;1.60;1.50;;;18.90;49.90;;;;;;4964409;28;20035;-54
2022/06/03 07:27:42;;;;;;;1.52;1.42;;;19.00;49.70;;;;;;4963592;28;20035;-55
2022/06/03 07:30:30;;;;;;;1.45;1.20;;;19.00;49.30;;;;;;4966967;28;20042;-51
2022/06/03 07:33:04;;;;;;;2.35;1.20;;;19.10;49.60;;;;;;4967740;28;20119;-54
2022/06/03 07:35:56;;;;;;;1.10;1.00;;;19.20;49.60;;;;;;4956186;28;20043;-53
2022/06/03 07:38:34;;;;;;;1.10;1.10;;;19.20;49.70;;;;;;4967994;28;20042;-54
2022/06/03 07:41:18;;;;;;;2.92;1.23;;;19.30;49.40;;;;;;4970811;28;20039;-52
2022/06/03 07:43:49;;;;;;;2.25;1.55;;;19.40;49.10;;;;;;4967440;28;20512;-52
2022/06/03 07:47:00;;;;;;;1.80;1.20;;;19.50;48.70;;;;;;4954080;28;20039;-50
2022/06/03 07:49:37;;;;;;;2.08;1.30;;;19.50;48.80;;;;;;4966803;28;20125;-50
2022/06/03 07:52:11;;;;;;;1.85;1.50;;;19.60;49.10;;;;;;4963781;28;20035;-51
2022/06/03 07:54:42;;;;;;;3.22;1.40;;;19.70;49.10;;;;;;4949501;28;20089;-51
2022/06/03 07:57:25;;;;;;;1.73;1.30;;;19.70;48.80;;;;;;4966809;28;20049;-53
2022/06/03 08:00:14;;;;;;;3.25;1.20;;;19.80;49.00;;;;;;4963774;28;20074;-53
2022/06/03 08:02:41;;;;;;;1.85;1.30;;;19.80;48.50;;;;;;4963992;28;20555;-54
2022/06/03 08:05:19;;;;;;;1.85;1.45;;;19.90;48.60;;;;;;4962923;28;20050;-50
2022/06/03 08:10:57;;;;;;;1.98;1.63;;;20.10;48.50;;;;;;4942925;28;20036;-52
2022/06/03 08:13:31;;;;;;;1.95;1.20;;;20.20;48.40;;;;;;4950779;28;20500;-50
2022/06/03 08:16:07;;;;;;;1.80;1.33;;;20.20;47.80;;;;;;4953345;28;20046;-52
2022/06/03 08:18:44;;;;;;;3.45;1.35;;;20.30;47.80;;;;;;4955305;28;20058;-49
2022/06/03 08:21:46;;;;;;;1.25;1.15;;;20.40;48.20;;;;;;4954557;28;20503;-51
2022/06/03 08:24:23;;;;;;;1.63;1.52;;;20.50;47.70;;;;;;4958732;28;20062;-52
2022/06/03 08:26:58;;;;;;;1.70;1.60;;;20.60;48.00;;;;;;4965274;28;20507;-49
2022/06/03 08:29:41;;;;;;;3.45;1.90;;;20.60;47.90;;;;;;4968319;28;20049;-55
2022/06/03 08:32:14;;;;;;;2.20;2.00;;;20.70;47.70;;;;;;4943898;28;20036;-53
2022/06/03 08:34:54;;;;;;;1.40;1.30;;;20.80;47.20;;;;;;4961287;28;20058;-51
2022/06/03 08:37:28;;;;;;;2.55;1.67;;;20.80;47.30;;;;;;4951090;28;20066;-50
2022/06/03 08:40:02;;;;;;;4.43;1.67;;;20.90;47.30;;;;;;4952575;28;20098;-50
2022/06/03 08:43:08;;;;;;;1.98;1.83;;;20.90;47.90;;;;;;4966091;28;20481;-51
2022/06/03 08:46:10;;;;;;;2.97;1.70;;;21.00;47.70;;;;;;4950519;23;20051;-50
2022/06/03 08:48:48;;;;;;;1.90;1.80;;;21.10;48.10;;;;;;4954504;28;20043;-49
2022/06/03 08:51:37;;;;;;;3.00;1.60;;;21.20;47.60;;;;;;4951202;28;20065;-47
2022/06/03 08:54:27;;;;;;;2.33;2.13;;;21.20;47.40;;;;;;4964193;28;20039;-53
2022/06/03 08:57:02;;;;;;;1.80;1.70;;;21.40;46.90;;;;;;4934635;29;20048;-50
2022/06/03 08:59:41;;;;;;;1.95;1.80;;;21.50;47.70;;;;;;4941296;28;20504;-46
2022/06/03 09:02:23;;;;;;;2.80;2.30;;;21.50;47.10;;;;;;4964210;28;20101;-49
2022/06/03 09:05:05;;;;;;;3.00;2.00;;;21.50;46.70;;;;;;4966301;28;20057;-47
2022/06/03 09:07:57;;;;;;;2.10;1.90;;;21.60;46.90;;;;;;4964647;28;20039;-48
2022/06/03 09:10:31;;;;;;;3.47;1.63;;;21.60;46.20;;;;;;4957649;28;20747;-47
2022/06/03 09:13:30;;;;;;;3.67;2.20;;;21.70;46.40;;;;;;4962725;28;20035;-46
2022/06/03 09:16:20;;;;;;;2.92;1.88;;;21.80;46.10;;;;;;4933339;29;20059;-47
2022/06/03 09:18:57;;;;;;;2.65;2.15;;;21.90;46.60;;;;;;4946519;28;20039;-47
2022/06/03 09:21:31;;;;;;;10.20;2.75;;;21.90;46.90;;;;;;4955313;28;20464;-48
2022/06/03 09:24:10;;;;;;;4.68;2.65;;;22.00;46.60;;;;;;4966495;28;20043;-50
2022/06/03 09:26:44;;;;;;;3.60;2.55;;;22.10;46.90;;;;;;4950472;28;20507;-51
2022/06/03 09:29:16;;;;;;;3.88;2.28;;;22.10;46.80;;;;;;4948357;28;20058;-50
2022/06/03 09:31:50;;;;;;;5.18;2.90;;;22.30;46.70;;;;;;4966875;28;20061;-52
2022/06/03 09:34:21;;;;;;;4.40;2.75;;;22.30;46.40;;;;;;4972465;28;20454;-52
2022/06/03 09:36:49;;;;;;;5.82;2.92;;;22.40;46.00;;;;;;4954687;28;20047;-53
2022/06/03 09:39:46;;;;;;;5.85;2.70;;;22.40;46.00;;;;;;4962400;28;20531;-50
2022/06/03 09:42:18;;;;;;;4.18;2.05;;;22.50;46.00;;;;;;4964785;28;20089;-51
2022/06/03 09:44:50;;;;;;;5.07;2.65;;;22.50;46.20;;;;;;4971753;28;20470;-51
2022/06/03 09:47:22;;;;;;;4.45;2.40;;;22.60;45.90;;;;;;4956407;28;20051;-51
2022/06/03 09:49:52;;;;;;;4.35;2.83;;;22.70;45.80;;;;;;4967133;28;20090;-49
2022/06/03 09:52:25;;;;;;;3.72;2.75;;;22.80;45.20;;;;;;4970574;28;20050;-47
2022/06/03 09:54:54;;;;;;;4.07;2.55;;;22.90;45.10;;;;;;4960411;28;20495;-47
2022/06/03 09:57:38;;;;;;;7.75;3.42;;;23.00;45.20;;;;;;4964528;28;20042;-49
2022/06/03 10:00:15;;;;;;;3.78;2.53;;;23.10;44.10;;;;;;4968464;28;20047;-48
2022/06/03 10:02:45;;;;;;;5.03;2.67;;;23.30;44.70;;;;;;4962490;28;20034;-51
2022/06/03 10:05:16;;;;;;;4.25;2.80;;;23.40;44.30;;;;;;4958600;28;20503;-48
2022/06/03 10:07:44;;;;;;;3.78;2.40;;;23.50;43.70;;;;;;4960600;28;20050;-48
2022/06/03 10:13:05;;;;;;;6.13;2.67;;;23.80;43.70;;;;;;4953100;29;19922;-49
2022/06/03 10:15:42;;;;;;;3.90;2.00;;;24.10;43.10;;;;;;4952367;28;20043;-48
2022/06/03 10:18:36;;;;;;;7.35;2.47;;;24.10;42.30;;;;;;4964010;28;20530;-52
2022/06/03 10:21:10;;;;;;;3.08;2.15;;;24.30;42.00;;;;;;4963877;28;20043;-48
2022/06/03 10:23:42;;;;;;;2.50;1.95;;;24.40;41.60;;;;;;4967646;28;20048;-49
2022/06/03 10:26:49;;;;;;;3.38;2.55;;;24.60;41.80;;;;;;4953237;28;20127;-48
2022/06/03 10:29:21;;;;;;;4.35;2.50;;;24.80;40.70;;;;;;4959744;28;20403;-48
2022/06/03 10:31:54;;;;;;;4.22;2.17;;;24.90;40.40;;;;;;4952945;29;20039;-50
2022/06/03 10:34:35;;;;;;;2.75;1.83;;;25.00;39.50;;;;;;4955917;28;20035;-53
2022/06/03 10:37:14;;;;;;;3.03;2.00;;;25.10;39.20;;;;;;4959694;28;20046;-51
2022/06/03 10:39:43;;;;;;;2.78;2.45;;;25.30;39.10;;;;;;4937679;29;20500;-48
2022/06/03 10:42:21;;;;;;;4.80;2.65;;;25.30;39.20;;;;;;4939960;28;20039;-53
2022/06/03 10:44:58;;;;;;;3.15;2.42;;;25.40;39.20;;;;;;4956317;28;20046;-49
2022/06/03 10:47:34;;;;;;;2.95;2.05;;;25.50;39.20;;;;;;4965875;28;20451;-48
2022/06/03 10:50:04;;;;;;;4.25;1.98;;;25.60;39.10;;;;;;4975777;28;20035;-49
2022/06/03 11:01:17;;;;;;;4.90;2.10;;;25.60;38.50;;;;;;4963600;28;20043;-48
2022/06/03 11:03:49;;;;;;;5.65;2.25;;;25.60;38.00;;;;;;4966134;28;20049;-48
2022/06/03 11:06:25;;;;;;;4.88;1.67;;;25.70;38.70;;;;;;4966220;28;20598;-52
2022/06/03 11:09:00;;;;;;;5.50;2.78;;;25.70;38.80;;;;;;4966418;28;20042;-49
2022/06/03 11:11:42;;;;;;;2.30;1.90;;;25.80;38.80;;;;;;4960525;28;20065;-49
2022/06/03 11:14:24;;;;;;;2.65;1.77;;;25.90;38.80;;;;;;4967306;28;20039;-51
2022/06/03 11:16:58;;;;;;;4.40;2.47;;;26.00;38.40;;;;;;4974183;28;20047;-53
2022/06/03 11:19:28;;;;;;;2.33;1.92;;;26.20;38.70;;;;;;4963225;28;20043;-52
2022/06/03 11:22:25;;;;;;;3.40;2.00;;;26.20;38.50;;;;;;4959865;28;20106;-50
2022/06/03 11:25:07;;;;;;;2.53;1.90;;;26.40;37.40;;;;;;4949568;28;20043;-52
2022/06/03 11:28:01;;;;;;;1.50;1.40;;;26.60;37.60;;;;;;4955228;29;20459;-51
2022/06/03 11:30:51;;;;;;;1.73;1.52;;;26.70;36.30;;;;;;4950550;28;20112;-48
2022/06/03 11:33:30;;;;;;;1.40;1.10;;;26.80;36.10;;;;;;4957076;28;20548;-51
2022/06/03 11:36:03;;;;;;;1.63;1.30;;;27.00;35.70;;;;;;4957196;28;20039;-48
2022/06/03 11:38:40;;;;;;;1.77;1.58;;;27.10;35.30;;;;;;4953757;29;20090;-51
2022/06/03 11:41:14;;;;;;;2.05;1.67;;;27.30;35.60;;;;;;4954038;28;20272;-50
2022/06/03 11:43:50;;;;;;;1.65;1.40;;;27.50;35.00;;;;;;4947883;28;20094;-51
2022/06/03 11:46:35;;;;;;;4.80;1.85;;;27.70;33.90;;;;;;4953582;28;20047;-49
2022/06/03 11:49:05;;;;;;;3.05;1.50;;;27.90;35.00;;;;;;4954466;28;20039;-49
2022/06/03 11:51:33;;;;;;;4.65;1.40;;;28.00;34.30;;;;;;4954166;28;20039;-48
2022/06/03 11:54:09;;;;;;;1.92;1.50;;;28.10;34.20;;;;;;4948915;29;20376;-50
2022/06/03 11:56:36;;;;;;;3.17;1.83;;;28.20;33.90;;;;;;4951511;29;20043;-52
2022/06/03 11:59:31;;;;;;;2.42;1.63;;;28.30;34.20;;;;;;4950725;29;20488;-51
2022/06/03 12:02:16;;;;;;;;;;;28.40;34.30;;;;;;4955333;28;20051;-51
2022/06/03 12:05:01;;;;;;;2.15;1.35;;;28.50;35.20;;;;;;4957970;28;19926;-51
2022/06/03 12:07:33;;;;;;;1.77;1.25;;;28.50;34.00;;;;;;4951039;29;20493;-49
2022/06/03 12:10:12;;;;;;;3.03;1.50;;;28.60;34.30;;;;;;4954901;29;20039;-49
2022/06/03 12:15:32;;;;;;;1.48;1.23;;;28.80;33.70;;;;;;4951935;28;20090;-48
2022/06/03 12:18:11;;;;;;;1.63;1.27;;;29.00;33.60;;;;;;4948095;29;20047;-48
2022/06/03 12:21:13;;;;;;;1.83;1.42;;;29.10;33.30;;;;;;4956723;28;20043;-48
2022/06/03 12:23:41;;;;;;;2.10;1.73;;;29.20;33.90;;;;;;4943391;29;20052;-51
2022/06/03 12:26:31;;;;;;;1.30;1.20;;;29.40;34.30;;;;;;4953246;28;20043;-50
2022/06/03 12:29:17;;;;;;;1.77;1.25;;;29.60;33.80;;;;;;4951421;29;20043;-50
2022/06/03 12:31:50;;;;;;;1.90;0.95;;;29.70;32.80;;;;;;4948318;29;20507;-50
2022/06/03 12:34:24;;;;;;;1.50;1.00;;;29.90;33.40;;;;;;4962706;28;20551;-51
2022/06/03 12:36:54;;;;;;;1.40;1.30;;;30.00;32.40;;;;;;4956392;28;20039;-51
2022/06/03 12:39:23;;;;;;;1.83;1.73;;;30.20;32.60;;;;;;4953964;29;20102;-52
2022/06/03 12:41:51;;;;;;;1.50;1.20;;;30.40;31.90;;;;;;4955911;28;20489;-50
2022/06/03 12:45:00;;;;;;;1.83;1.30;;;30.60;31.70;;;;;;4963837;28;20051;-53
2022/06/03 12:47:49;;;;;;;3.33;1.58;;;30.70;31.80;;;;;;4944202;28;20522;-49
2022/06/03 12:50:25;;;;;;;1.05;1.00;;;30.80;31.30;;;;;;4957628;28;20075;-52
2022/06/03 12:52:59;;;;;;;1.25;1.25;;;30.90;31.10;;;;;;4967087;28;20546;-49
2022/06/03 12:55:36;;;;;;;2.58;1.25;;;30.90;31.20;;;;;;4953443;28;20047;-53
2022/06/03 12:58:25;;;;;;;2.00;1.40;;;30.90;31.80;;;;;;4961119;28;20038;-50
2022/06/03 13:00:57;;;;;;;3.65;1.98;;;30.90;31.60;;;;;;4933885;29;20456;-53
2022/06/03 13:03:24;;;;;;;2.08;1.42;;;30.90;31.20;;;;;;4951800;28;20043;-52
2022/06/03 13:05:58;;;;;;;1.73;1.17;;;31.00;31.20;;;;;;4961659;28;20094;-52
2022/06/03 13:08:34;;;;;;;2.08;1.80;;;31.10;31.30;;;;;;4972905;28;20138;-52
2022/06/03 13:11:31;;;;;;;1.90;1.25;;;31.20;31.70;;;;;;4960279;28;20043;-52
2022/06/03 13:13:57;;;;;;;1.50;1.40;;;31.30;30.90;;;;;;4950821;28;20040;-52
2022/06/03 13:16:31;;;;;;;1.55;1.30;;;31.40;30.90;;;;;;4962409;28;20458;-50
2022/06/03 13:19:11;;;;;;;4.70;2.00;;;31.50;30.70;;;;;;4968409;28;20129;-51
2022/06/03 13:22:02;;;;;;;1.63;1.20;;;31.50;30.40;;;;;;4958105;28;20102;-51
2022/06/03 13:24:30;;;;;;;1.50;1.10;;;31.50;30.70;;;;;;4933577;28;20602;-53
2022/06/03 13:27:19;;;;;;;1.73;1.38;;;31.60;30.60;;;;;;4966905;28;20069;-53
2022/06/03 13:29:55;;;;;;;2.65;1.52;;;31.60;30.20;;;;;;4955897;28;20040;-50
2022/06/03 13:32:34;;;;;;;1.70;1.27;;;31.90;30.40;;;;;;4950628;28;20063;-51
2022/06/03 13:35:24;;;;;;;3.30;1.63;;;32.10;29.90;;;;;;4955212;28;20038;-51
2022/06/03 13:38:11;;;;;;;1.90;1.33;;;32.30;29.60;;;;;;4951738;29;20499;-51
2022/06/03 13:40:39;;;;;;;2.80;1.20;;;32.20;30.00;;;;;;4950328;28;20114;-52
2022/06/03 13:43:23;;;;;;;1.38;1.27;;;32.10;30.30;;;;;;4950717;28;20090;-51
2022/06/03 13:45:59;;;;;;;2.17;1.60;;;32.00;30.10;;;;;;4961014;28;20051;-51
2022/06/03 13:48:33;;;;;;;5.18;1.40;;;31.90;30.30;;;;;;4969147;28;20046;-49
2022/06/03 13:51:50;;;;;;;1.50;1.40;;;31.80;30.20;;;;;;4951502;28;20039;-50
2022/06/03 13:54:43;;;;;;;4.88;1.40;;;31.70;30.70;;;;;;4951618;28;20063;-50
2022/06/03 13:57:27;;;;;;;4.03;1.25;;;31.60;30.10;;;;;;4971573;28;20042;-51
2022/06/03 14:00:19;;;;;;;1.58;1.38;;;31.40;30.00;;;;;;4954660;28;20049;-51
2022/06/03 14:02:49;;;;;;;1.13;1.02;;;31.30;30.40;;;;;;4954888;28;20071;-48
2022/06/03 14:05:36;;;;;;;3.08;1.20;;;31.20;30.50;;;;;;4952243;28;20412;-53
2022/06/03 14:08:27;;;;;;;2.58;1.63;;;31.10;30.70;;;;;;4951038;29;20051;-49
2022/06/03 14:11:01;;;;;;;1.97;1.60;;;31.00;30.50;;;;;;4957153;28;20090;-52
2022/06/03 14:13:56;;;;;;;1.60;1.50;;;30.90;30.60;;;;;;4963617;28;20533;-51
2022/06/03 14:16:40;;;;;;;3.05;1.30;;;30.80;31.10;;;;;;4971188;28;20396;-51
2022/06/03 14:19:10;;;;;;;3.65;1.50;;;30.70;31.20;;;;;;4957615;28;20132;-51
2022/06/03 14:22:07;;;;;;;2.33;1.40;;;30.60;30.50;;;;;;4946880;28;20500;-53
2022/06/03 14:24:38;;;;;;;1.55;1.23;;;30.60;31.60;;;;;;4951989;28;20055;-49
2022/06/03 14:27:28;;;;;;;1.58;1.45;;;30.70;31.20;;;;;;4952022;29;20395;-53
2022/06/03 14:30:17;;;;;;;3.20;1.45;;;30.80;31.00;;;;;;4950816;28;20086;-48
2022/06/03 14:32:55;;;;;;;2.40;1.70;;;30.90;31.50;;;;;;4954465;28;20087;-50
2022/06/03 14:35:33;;;;;;;4.88;1.55;;;31.10;30.60;;;;;;4950181;28;20534;-51
2022/06/03 14:38:18;;;;;;;3.63;2.15;;;31.10;30.50;;;;;;4953139;28;20095;-54
2022/06/03 14:40:48;;;;;;;2.63;1.58;;;31.10;31.10;;;;;;4948143;28;20047;-53
2022/06/03 14:43:23;;;;;;;3.78;1.67;;;31.00;30.60;;;;;;4965536;28;20406;-52
2022/06/03 14:45:54;;;;;;;2.50;1.80;;;31.00;30.30;;;;;;4964342;28;20057;-52
2022/06/03 14:48:27;;;;;;;2.47;1.63;;;30.90;30.50;;;;;;4956819;28;20038;-53